Time;durP1;ratioP1;P1;durP2;ratioP2;P2;SDS_P1;SDS_P2;PMS_P1;PMS_P2;Temp;Humidity;BMP_temperature;BMP_pressure;BME280_temperature;BME280_humidity;BME280_pressure;Samples;Min_cycle;Max_cycle;Signal;HPM_P1;HPM_P2
2023/12/23 00:00:35;;;;;;;0.2;0.2;;;;;;;7.31;89.05078;929.7129;;;;
2023/12/23 00:03:03;;;;;;;0.1;0.1;;;;;;;7.37;89.06348;929.9026;;;;
2023/12/23 00:05:30;;;;;;;0.1;0.1;;;;;;;7.28;88.92969;929.985;;;;
2023/12/23 00:07:58;;;;;;;0.1;0.1;;;;;;;7.32;89.34863;929.9156;;;;
2023/12/23 00:10:23;;;;;;;0.1;0.1;;;;;;;7.34;88.62695;930.0386;;;;
2023/12/23 00:12:56;;;;;;;0.2;0.2;;;;;;;7.27;89.06543;930.0982;;;;
2023/12/23 00:15:29;;;;;;;0.1;0.1;;;;;;;7.16;90.09473;930.3162;;;;
2023/12/23 00:17:55;;;;;;;0.2;0.2;;;;;;;7.28;89.25781;930.2233;;;;
2023/12/23 00:20:23;;;;;;;0.1;0.1;;;;;;;7.32;89.74512;930.2665;;;;
2023/12/23 00:22:48;;;;;;;0.1;0.1;;;;;;;7.26;90.10645;930.2192;;;;
2023/12/23 00:25:16;;;;;;;0.4;0.2;;;;;;;7.3;90.27246;930.3986;;;;
2023/12/23 00:27:41;;;;;;;0.2;0.2;;;;;;;7.31;89.12988;930.101;;;;
2023/12/23 00:30:15;;;;;;;0.1;0.1;;;;;;;7.34;89.13574;930.0061;;;;
2023/12/23 00:32:39;;;;;;;0.1;0.1;;;;;;;7.33;88.70508;930.2064;;;;
2023/12/23 00:35:05;;;;;;;0.2;0.2;;;;;;;7.33;88.71387;930.0709;;;;
2023/12/23 00:37:30;;;;;;;0.1;0.1;;;;;;;7.35;89.03516;930.2873;;;;
2023/12/23 00:39:59;;;;;;;0.1;0.1;;;;;;;7.29;88.60449;930.0928;;;;
2023/12/23 00:42:24;;;;;;;0.1;0.1;;;;;;;7.28;88.52344;930.05;;;;
2023/12/23 00:44:59;;;;;;;0.2;0.1;;;;;;;7.32;88.44043;930.2411;;;;
2023/12/23 00:47:38;;;;;;;0.2;0.2;;;;;;;7.35;88.78613;930.1804;;;;
2023/12/23 00:50:04;;;;;;;0.3;0.3;;;;;;;7.22;88.4082;930.2434;;;;
2023/12/23 00:52:41;;;;;;;0.2;0.2;;;;;;;7.26;88.48535;930.3974;;;;
2023/12/23 00:55:15;;;;;;;0.2;0.2;;;;;;;7.28;87.56934;930.3041;;;;
2023/12/23 00:57:42;;;;;;;0.2;0.2;;;;;;;7.27;87.52246;930.4077;;;;
2023/12/23 01:00:10;;;;;;;0.1;0.1;;;;;;;7.29;87.53906;930.457;;;;
2023/12/23 01:02:38;;;;;;;0.2;0.2;;;;;;;7.28;88.05664;930.4308;;;;
2023/12/23 01:05:03;;;;;;;0.1;0.1;;;;;;;7.25;88.17578;930.6641;;;;
2023/12/23 01:07:29;;;;;;;0.2;0.2;;;;;;;7.27;88.02344;930.7806;;;;
2023/12/23 01:09:54;;;;;;;0.1;0.1;;;;;;;7.22;88.27246;930.6512;;;;
2023/12/23 01:12:19;;;;;;;0.3;0.1;;;;;;;7.25;88.13086;930.8557;;;;
2023/12/23 01:14:47;;;;;;;0.1;0.1;;;;;;;7.18;88.53711;930.7787;;;;
2023/12/23 01:17:17;;;;;;;0.1;0.1;;;;;;;7.25;88.62012;930.9705;;;;
2023/12/23 01:19:42;;;;;;;0.1;0.1;;;;;;;7.27;88.22656;930.7878;;;;
2023/12/23 01:22:07;;;;;;;1.2;0.1;;;;;;;7.24;88.27637;930.7558;;;;
2023/12/23 01:24:36;;;;;;;0.1;0.1;;;;;;;7.22;88.125;930.808;;;;
2023/12/23 01:27:01;;;;;;;0.1;0.1;;;;;;;7.32;87.7373;930.8247;;;;
2023/12/23 01:29:30;;;;;;;0.1;0.1;;;;;;;7.3;87.76758;930.9219;;;;
2023/12/23 01:31:55;;;;;;;0.1;0.1;;;;;;;7.27;87.7832;930.9177;;;;
2023/12/23 01:34:24;;;;;;;0.1;0.1;;;;;;;7.32;88.13477;931.1169;;;;
2023/12/23 01:36:49;;;;;;;0.1;0.1;;;;;;;7.36;87.68848;930.9565;;;;
2023/12/23 01:39:14;;;;;;;0.1;0.1;;;;;;;7.16;87.45703;931.1522;;;;
2023/12/23 01:41:43;;;;;;;0.1;0.1;;;;;;;7.18;87.33398;931.2395;;;;
2023/12/23 01:44:08;;;;;;;0.1;0.1;;;;;;;7.26;87.63379;931.2358;;;;
2023/12/23 01:46:33;;;;;;;0.2;0.1;;;;;;;7.26;87.93066;931.125;;;;
2023/12/23 01:48:58;;;;;;;0.1;0.1;;;;;;;7.27;86.78809;931.1346;;;;
2023/12/23 01:51:27;;;;;;;0.1;0.1;;;;;;;7.35;86.40625;931.2581;;;;
2023/12/23 01:53:51;;;;;;;0.1;0.1;;;;;;;7.27;86.86719;931.0942;;;;
2023/12/23 01:56:17;;;;;;;0.7;0.1;;;;;;;7.26;86.64844;931.0609;;;;
2023/12/23 01:58:43;;;;;;;0.2;0.2;;;;;;;7.27;87.25098;931.1077;;;;
2023/12/23 02:01:10;;;;;;;0.1;0.1;;;;;;;7.24;87.60938;931.063;;;;
2023/12/23 02:03:35;;;;;;;0.1;0.1;;;;;;;7.21;86.93359;931.2496;;;;
2023/12/23 02:06:00;;;;;;;0.1;0.1;;;;;;;7.26;86.91113;931.3555;;;;
2023/12/23 02:08:29;;;;;;;0.1;0.1;;;;;;;7.21;87.59082;931.2828;;;;
2023/12/23 02:10:54;;;;;;;0.1;0.1;;;;;;;7.23;87.4375;931.3519;;;;
2023/12/23 02:13:19;;;;;;;0.1;0.1;;;;;;;7.21;87.0127;931.5133;;;;
2023/12/23 02:15:44;;;;;;;0.1;0.1;;;;;;;7.2;87.46484;931.1994;;;;
2023/12/23 02:18:09;;;;;;;0.1;0.1;;;;;;;7.32;86.31152;931.55;;;;
2023/12/23 02:20:35;;;;;;;0.2;0.1;;;;;;;7.29;86.0791;931.4001;;;;
2023/12/23 02:23:00;;;;;;;0.1;0.1;;;;;;;7.26;86.73926;931.4797;;;;
2023/12/23 02:25:30;;;;;;;0.1;0.1;;;;;;;7.24;86.74805;931.5286;;;;
2023/12/23 02:27:57;;;;;;;0.1;0.1;;;;;;;7.27;86.78809;931.5963;;;;
2023/12/23 02:30:25;;;;;;;0.1;0.1;;;;;;;7.23;87.06348;931.778;;;;
2023/12/23 02:32:50;;;;;;;0.2;0.1;;;;;;;7.26;87.12402;931.6246;;;;
2023/12/23 02:35:21;;;;;;;0.1;0.1;;;;;;;7.35;87.08594;931.8329;;;;
2023/12/23 02:37:51;;;;;;;0.1;0.1;;;;;;;7.27;87.70605;931.6264;;;;
2023/12/23 02:40:18;;;;;;;0.1;0.1;;;;;;;7.21;87.71582;931.7056;;;;
2023/12/23 02:42:44;;;;;;;0.1;0.1;;;;;;;7.25;87.50781;931.8525;;;;
2023/12/23 02:45:13;;;;;;;0.1;0.1;;;;;;;7.15;87.54395;931.7648;;;;
2023/12/23 02:47:41;;;;;;;0.1;0.1;;;;;;;7.29;87.05176;931.9203;;;;
2023/12/23 02:50:06;;;;;;;0;0;;;;;;;7.18;87.75391;931.8348;;;;
2023/12/23 02:52:36;;;;;;;0.1;0.1;;;;;;;7.22;87.66113;931.9695;;;;
2023/12/23 02:55:03;;;;;;;0.2;0.1;;;;;;;7.19;87.49609;931.9561;;;;
2023/12/23 02:57:28;;;;;;;0.2;0.2;;;;;;;7.1;87.89746;931.8814;;;;
2023/12/23 02:59:53;;;;;;;0.3;0.1;;;;;;;7.21;87.88574;932.1688;;;;
2023/12/23 03:02:25;;;;;;;0.1;0.1;;;;;;;7.14;87.98438;931.923;;;;
2023/12/23 03:04:54;;;;;;;0.1;0.1;;;;;;;7.15;87.56836;932.1053;;;;
2023/12/23 03:07:19;;;;;;;0.1;0.1;;;;;;;7.21;87.16016;932.0263;;;;
2023/12/23 03:09:50;;;;;;;0.2;0.2;;;;;;;7.11;87.48926;932.1261;;;;
2023/12/23 03:12:15;;;;;;;0.1;0.1;;;;;;;7.18;87.19824;932.2805;;;;
2023/12/23 03:14:40;;;;;;;0.1;0.1;;;;;;;7.05;87.34082;932.1744;;;;
2023/12/23 03:17:09;;;;;;;0.1;0.1;;;;;;;7.08;87.34766;932.0466;;;;
2023/12/23 03:19:35;;;;;;;0.1;0.1;;;;;;;7.14;86.94141;932.223;;;;
2023/12/23 03:22:04;;;;;;;0.1;0.1;;;;;;;7.03;87.87109;932.1956;;;;
2023/12/23 03:24:34;;;;;;;0.2;0.1;;;;;;;7;88.90723;932.0106;;;;
2023/12/23 03:27:05;;;;;;;0.1;0.1;;;;;;;7.02;89.05859;932.2809;;;;
2023/12/23 03:29:30;;;;;;;1.2;0.2;;;;;;;7.03;88.84473;932.3856;;;;
2023/12/23 03:31:59;;;;;;;0.2;0.2;;;;;;;7;88.83789;932.3658;;;;
2023/12/23 03:34:24;;;;;;;0.2;0.2;;;;;;;7.02;88.57129;932.4542;;;;
2023/12/23 03:36:49;;;;;;;0.2;0.1;;;;;;;7.12;87.02832;932.3535;;;;
2023/12/23 03:39:14;;;;;;;0.1;0.1;;;;;;;6.99;87.69434;932.3625;;;;
2023/12/23 03:41:42;;;;;;;0.2;0.1;;;;;;;6.98;88.00684;932.3633;;;;
2023/12/23 03:44:08;;;;;;;0.1;0.1;;;;;;;7.03;88.6748;932.3839;;;;
2023/12/23 03:46:41;;;;;;;0.1;0.1;;;;;;;7.05;87.80469;932.3597;;;;
2023/12/23 03:49:05;;;;;;;0.1;0.1;;;;;;;6.94;88.59961;932.4165;;;;
2023/12/23 03:51:35;;;;;;;0.2;0.2;;;;;;;6.97;88.58301;932.4445;;;;
2023/12/23 03:54:00;;;;;;;3.2;3;;;;;;;6.92;88.90234;932.2905;;;;
2023/12/23 03:56:24;;;;;;;6.1;5;;;;;;;6.88;88.48535;932.3983;;;;
2023/12/23 03:58:53;;;;;;;0.9;0.9;;;;;;;6.92;88.62793;932.5524;;;;
2023/12/23 04:02:36;;;;;;;11.6;10.6;;;;;;;6.92;87.58691;932.584;;;;
2023/12/23 04:05:01;;;;;;;1.7;1.6;;;;;;;6.92;88.16406;932.4993;;;;
2023/12/23 04:07:26;;;;;;;0.7;0.7;;;;;;;6.85;89.09082;932.5332;;;;
2023/12/23 04:09:52;;;;;;;1;1;;;;;;;6.85;89.37402;932.5759;;;;
2023/12/23 04:12:17;;;;;;;0.2;0.2;;;;;;;6.89;89.26953;932.6027;;;;
2023/12/23 04:14:44;;;;;;;0.2;0.2;;;;;;;6.87;89.10547;932.5715;;;;
2023/12/23 04:17:09;;;;;;;0.5;0.4;;;;;;;6.88;88.65527;932.6222;;;;
2023/12/23 04:19:38;;;;;;;0.2;0.2;;;;;;;6.84;88.45508;932.5798;;;;
2023/12/23 04:22:03;;;;;;;0.5;0.5;;;;;;;6.97;87.50684;932.4747;;;;
2023/12/23 04:24:33;;;;;;;0.1;0.1;;;;;;;6.85;88.12891;932.5103;;;;
2023/12/23 04:26:58;;;;;;;0.2;0.2;;;;;;;6.89;87.97949;932.5678;;;;
2023/12/23 04:29:24;;;;;;;0.1;0.1;;;;;;;6.94;87.5918;932.5464;;;;
2023/12/23 04:31:51;;;;;;;0.4;0.2;;;;;;;6.81;88.06445;932.778;;;;
2023/12/23 04:34:18;;;;;;;0.2;0.2;;;;;;;6.88;88.71094;932.7598;;;;
2023/12/23 04:36:43;;;;;;;0.2;0.2;;;;;;;6.84;88.87402;932.78;;;;
2023/12/23 04:39:08;;;;;;;0.1;0.1;;;;;;;6.76;88.16602;932.6852;;;;
2023/12/23 04:41:34;;;;;;;0.2;0.2;;;;;;;6.75;88.3457;932.7831;;;;
2023/12/23 04:44:04;;;;;;;0.2;0.2;;;;;;;6.81;88.7207;932.7162;;;;
2023/12/23 04:46:31;;;;;;;0.6;0.6;;;;;;;6.88;88.31543;932.7559;;;;
2023/12/23 04:48:56;;;;;;;0.2;0.2;;;;;;;6.8;88.51367;932.6177;;;;
2023/12/23 04:51:26;;;;;;;2.1;2;;;;;;;6.85;88.78516;932.8244;;;;
2023/12/23 04:53:51;;;;;;;0.6;0.6;;;;;;;6.77;88.9248;932.6417;;;;
2023/12/23 04:56:17;;;;;;;0.1;0.1;;;;;;;6.75;88.70605;932.692;;;;
2023/12/23 04:58:42;;;;;;;0.1;0.1;;;;;;;6.78;89.13184;932.6711;;;;
2023/12/23 05:01:09;;;;;;;0.2;0.2;;;;;;;6.79;88.72656;932.7037;;;;
2023/12/23 05:03:35;;;;;;;0.1;0.1;;;;;;;6.79;88.33008;932.5368;;;;
2023/12/23 05:06:00;;;;;;;0.2;0.2;;;;;;;6.78;88.65918;932.7725;;;;
2023/12/23 05:08:26;;;;;;;0.9;0.2;;;;;;;6.76;89.09473;932.7144;;;;
2023/12/23 05:10:51;;;;;;;0.1;0.1;;;;;;;6.79;88.9209;932.6319;;;;
2023/12/23 05:13:16;;;;;;;0.1;0.1;;;;;;;6.78;88.53223;932.6585;;;;
2023/12/23 05:15:41;;;;;;;0.2;0.2;;;;;;;6.79;88.27539;932.5511;;;;
2023/12/23 05:18:12;;;;;;;0.4;0.3;;;;;;;6.82;88.54199;932.5772;;;;
2023/12/23 05:20:44;;;;;;;0.3;0.3;;;;;;;6.81;88.67578;932.5842;;;;
2023/12/23 05:23:12;;;;;;;0.5;0.2;;;;;;;6.79;89.7793;932.5075;;;;
2023/12/23 05:25:46;;;;;;;0.2;0.2;;;;;;;6.94;87.88672;932.4252;;;;
2023/12/23 05:28:13;;;;;;;1;0.2;;;;;;;7.05;87.37695;932.5275;;;;
2023/12/23 05:30:38;;;;;;;0.2;0.2;;;;;;;6.89;88.89648;932.4459;;;;
2023/12/23 05:33:05;;;;;;;0.4;0.4;;;;;;;6.9;88.37598;932.6003;;;;
2023/12/23 05:35:31;;;;;;;0.4;0.4;;;;;;;6.93;87.81641;932.6119;;;;
2023/12/23 05:37:56;;;;;;;0.6;0.2;;;;;;;7.01;87.21289;932.5033;;;;
2023/12/23 05:40:32;;;;;;;0.1;0.1;;;;;;;6.96;87.64258;932.5442;;;;
2023/12/23 05:42:57;;;;;;;0.3;0.3;;;;;;;7.05;87.0459;932.4277;;;;
2023/12/23 05:45:27;;;;;;;0.2;0.2;;;;;;;6.99;87.13867;932.5122;;;;
2023/12/23 05:47:55;;;;;;;0.1;0.1;;;;;;;6.97;87.74512;932.3528;;;;
2023/12/23 05:50:20;;;;;;;0.9;0.5;;;;;;;7.04;86.84277;932.5416;;;;
2023/12/23 05:52:49;;;;;;;14.2;9.9;;;;;;;7.02;86.69141;932.5128;;;;
2023/12/23 05:55:14;;;;;;;6.7;4.4;;;;;;;6.97;87.17871;932.7106;;;;
2023/12/23 05:57:41;;;;;;;3.9;3.2;;;;;;;6.97;87.20117;932.5221;;;;
2023/12/23 06:00:07;;;;;;;1.2;1.1;;;;;;;6.9;87.5166;932.5402;;;;
2023/12/23 06:02:35;;;;;;;2.4;2.2;;;;;;;6.89;87.85254;932.6097;;;;
2023/12/23 06:05:05;;;;;;;2;1.9;;;;;;;6.8;88.56055;932.4761;;;;
2023/12/23 06:07:29;;;;;;;0.6;0.6;;;;;;;6.84;88.31934;932.4673;;;;
2023/12/23 06:09:59;;;;;;;0.4;0.2;;;;;;;6.91;87.63184;932.318;;;;
2023/12/23 06:12:25;;;;;;;0.5;0.5;;;;;;;6.86;87.99609;932.41;;;;
2023/12/23 06:14:56;;;;;;;0.3;0.3;;;;;;;6.71;89.36816;932.5491;;;;
2023/12/23 06:17:18;;;;;;;0.3;0.3;;;;;;;6.72;89.15332;932.448;;;;
2023/12/23 06:19:47;;;;;;;0.3;0.3;;;;;;;6.75;89.20605;932.4619;;;;
2023/12/23 06:22:17;;;;;;;0.3;0.3;;;;;;;6.71;89.73047;932.6062;;;;
2023/12/23 06:24:42;;;;;;;0.2;0.2;;;;;;;6.67;90.09375;932.4608;;;;
2023/12/23 06:27:12;;;;;;;0.3;0.3;;;;;;;6.69;89.7373;932.4208;;;;
2023/12/23 06:29:37;;;;;;;0.3;0.3;;;;;;;6.67;90.48828;932.3911;;;;
2023/12/23 06:32:06;;;;;;;1.2;0.4;;;;;;;6.83;89.17773;932.483;;;;
2023/12/23 06:34:31;;;;;;;0.2;0.2;;;;;;;6.75;88.93457;932.473;;;;
2023/12/23 06:36:57;;;;;;;0.2;0.2;;;;;;;6.72;89.39258;932.4409;;;;
2023/12/23 06:39:27;;;;;;;0.2;0.2;;;;;;;6.76;88.69824;932.4731;;;;
2023/12/23 06:41:52;;;;;;;0.2;0.2;;;;;;;6.75;89.2627;932.5505;;;;
2023/12/23 06:44:22;;;;;;;0.1;0.1;;;;;;;6.78;89.06641;932.4781;;;;
2023/12/23 06:46:51;;;;;;;0.2;0.2;;;;;;;6.64;89.24902;932.5062;;;;
2023/12/23 06:49:16;;;;;;;0.2;0.2;;;;;;;6.67;89.46289;932.6119;;;;
2023/12/23 06:51:42;;;;;;;0.4;0.2;;;;;;;6.72;89.71875;932.4963;;;;
2023/12/23 06:54:07;;;;;;;0.2;0.2;;;;;;;6.74;89.30566;932.5748;;;;
2023/12/23 06:56:37;;;;;;;0.7;0.5;;;;;;;6.72;89.06445;932.5438;;;;
2023/12/23 06:59:09;;;;;;;0.4;0.4;;;;;;;6.76;89.03809;932.6046;;;;
2023/12/23 07:01:30;;;;;;;0.1;0.1;;;;;;;6.84;88.7041;932.7545;;;;
2023/12/23 07:03:58;;;;;;;3;0.2;;;;;;;6.73;89.5625;932.7756;;;;
2023/12/23 07:06:23;;;;;;;0.2;0.2;;;;;;;6.75;89.55469;932.8076;;;;
2023/12/23 07:08:53;;;;;;;0.4;0.4;;;;;;;6.82;89.27734;932.8351;;;;
2023/12/23 07:11:23;;;;;;;0.6;0.6;;;;;;;6.85;88.74023;932.8109;;;;
2023/12/23 07:13:48;;;;;;;0.6;0.6;;;;;;;6.79;89.10059;932.8619;;;;
2023/12/23 07:16:16;;;;;;;0.6;0.6;;;;;;;6.74;89.13574;932.8066;;;;
2023/12/23 07:18:41;;;;;;;0.6;0.6;;;;;;;6.64;90.03027;932.836;;;;
2023/12/23 07:21:08;;;;;;;0.8;0.8;;;;;;;6.62;89.48535;932.6633;;;;
2023/12/23 07:23:33;;;;;;;0.6;0.6;;;;;;;6.7;89.03809;932.8354;;;;
2023/12/23 07:26:04;;;;;;;0.9;0.9;;;;;;;6.74;89.32813;932.7505;;;;
2023/12/23 07:28:33;;;;;;;0.6;0.6;;;;;;;6.77;88.55273;932.8;;;;
2023/12/23 07:30:58;;;;;;;0.3;0.3;;;;;;;6.78;88.2832;932.6862;;;;
2023/12/23 07:33:26;;;;;;;0.5;0.5;;;;;;;6.77;88.20215;932.6386;;;;
2023/12/23 07:35:51;;;;;;;1.2;0.7;;;;;;;6.8;88.23242;932.62;;;;
2023/12/23 07:38:18;;;;;;;0.3;0.3;;;;;;;6.93;87.28418;932.6625;;;;
2023/12/23 07:40:44;;;;;;;0.5;0.5;;;;;;;6.91;87.28125;932.671;;;;
2023/12/23 07:43:11;;;;;;;0.3;0.3;;;;;;;6.96;86.14844;932.5973;;;;
2023/12/23 07:45:36;;;;;;;0.4;0.4;;;;;;;6.99;86.30078;932.6649;;;;
2023/12/23 07:48:02;;;;;;;0.4;0.4;;;;;;;6.96;85.5918;932.3463;;;;
2023/12/23 07:50:28;;;;;;;0.4;0.4;;;;;;;7;85.58789;932.4853;;;;
2023/12/23 07:52:58;;;;;;;0.5;0.5;;;;;;;7.07;85.72656;932.5222;;;;
2023/12/23 07:55:24;;;;;;;0.9;0.3;;;;;;;7.09;85.21094;932.3364;;;;
2023/12/23 07:57:48;;;;;;;1.6;0.4;;;;;;;7.11;85.71289;932.4246;;;;
2023/12/23 08:00:14;;;;;;;0.6;0.6;;;;;;;7.18;84.15234;932.2458;;;;
2023/12/23 08:02:39;;;;;;;1.4;1.3;;;;;;;7.12;85.70313;932.3732;;;;
2023/12/23 08:05:05;;;;;;;1.5;1.4;;;;;;;7.13;86.8623;932.4328;;;;
2023/12/23 08:07:29;;;;;;;1.5;1.2;;;;;;;7.14;86.22949;932.4796;;;;
2023/12/23 08:09:58;;;;;;;7.1;4.5;;;;;;;7.13;86.22656;932.3805;;;;
2023/12/23 08:12:23;;;;;;;3.5;2.2;;;;;;;7.06;87.09473;932.3756;;;;
2023/12/23 08:14:48;;;;;;;3.5;2.2;;;;;;;7.04;87.13672;932.3959;;;;
2023/12/23 08:17:16;;;;;;;2.8;1.5;;;;;;;7.12;86.72266;932.3836;;;;
2023/12/23 08:19:45;;;;;;;1.1;1;;;;;;;7.23;84.02734;932.4367;;;;
2023/12/23 08:22:10;;;;;;;0.7;0.3;;;;;;;7.38;82.13867;932.2151;;;;
2023/12/23 08:24:38;;;;;;;0.2;0.2;;;;;;;7.4;81.75781;932.3557;;;;
2023/12/23 08:27:03;;;;;;;0.4;0.4;;;;;;;7.5;81.2666;932.3189;;;;
2023/12/23 08:29:32;;;;;;;0.3;0.3;;;;;;;7.58;80.60156;932.4117;;;;
2023/12/23 08:31:57;;;;;;;0.2;0.2;;;;;;;7.67;79.26758;932.3757;;;;
2023/12/23 08:34:27;;;;;;;0.3;0.2;;;;;;;7.69;79.4541;932.2704;;;;
2023/12/23 08:36:51;;;;;;;0.2;0.2;;;;;;;7.68;78.97559;932.173;;;;
2023/12/23 08:39:18;;;;;;;0.2;0.2;;;;;;;7.78;77.78027;932.1962;;;;
2023/12/23 08:41:46;;;;;;;0.2;0.2;;;;;;;7.87;77.65918;932.3233;;;;
2023/12/23 08:44:15;;;;;;;0.3;0.3;;;;;;;7.88;77.61621;932.2878;;;;
2023/12/23 08:46:41;;;;;;;0.2;0.2;;;;;;;7.91;77.67871;932.4522;;;;
2023/12/23 08:49:05;;;;;;;0.2;0.2;;;;;;;8.08;74.80469;932.2495;;;;
2023/12/23 08:51:34;;;;;;;0.1;0.1;;;;;;;8.12;74.4248;932.33;;;;
2023/12/23 08:53:57;;;;;;;0.7;0.2;;;;;;;8.15;75.6084;932.5862;;;;
2023/12/23 08:56:22;;;;;;;0.1;0.1;;;;;;;8.18;75.37695;932.382;;;;
2023/12/23 08:58:48;;;;;;;0.1;0.1;;;;;;;8.21;74.68848;932.4662;;;;
2023/12/23 09:01:14;;;;;;;0.2;0.2;;;;;;;8.21;75.53027;932.502;;;;
2023/12/23 09:03:40;;;;;;;0.2;0.2;;;;;;;8.21;75.88281;932.4611;;;;
2023/12/23 09:06:06;;;;;;;0.2;0.2;;;;;;;8.19;76.20898;932.4099;;;;
2023/12/23 09:08:34;;;;;;;0.3;0.3;;;;;;;8.21;76.43945;932.5769;;;;
2023/12/23 09:10:59;;;;;;;0.7;0.3;;;;;;;8.21;77.05078;932.6439;;;;
2023/12/23 09:13:27;;;;;;;0.3;0.2;;;;;;;8.23;78.19141;932.7008;;;;
2023/12/23 09:15:52;;;;;;;1.1;1;;;;;;;8.22;78.16504;932.7261;;;;
2023/12/23 09:18:20;;;;;;;1.2;0.7;;;;;;;8.16;79.46094;932.8251;;;;
2023/12/23 09:20:45;;;;;;;0.8;0.8;;;;;;;8.07;79.30957;932.7267;;;;
2023/12/23 09:23:11;;;;;;;0.3;0.3;;;;;;;8.04;80.4707;932.8461;;;;
2023/12/23 09:25:36;;;;;;;0.5;0.5;;;;;;;8.09;81.55957;933.0369;;;;
2023/12/23 09:28:05;;;;;;;1.2;1.1;;;;;;;7.91;82.19531;932.8208;;;;
2023/12/23 09:30:31;;;;;;;1;0.9;;;;;;;7.85;82.74023;933.0143;;;;
2023/12/23 09:33:00;;;;;;;1.7;1.6;;;;;;;7.86;83.17383;933.0081;;;;
2023/12/23 09:35:25;;;;;;;0.7;0.7;;;;;;;7.83;83.66699;932.8848;;;;
2023/12/23 09:37:53;;;;;;;0.4;0.4;;;;;;;7.82;83.50684;932.9118;;;;
2023/12/23 09:40:19;;;;;;;0.6;0.6;;;;;;;7.93;83.01758;932.9589;;;;
2023/12/23 09:42:47;;;;;;;0.5;0.5;;;;;;;7.94;83.33496;932.8781;;;;
2023/12/23 09:45:14;;;;;;;0.3;0.3;;;;;;;7.85;83.79785;932.9437;;;;
2023/12/23 09:47:44;;;;;;;0.6;0.5;;;;;;;7.88;83.4834;932.9338;;;;
2023/12/23 09:50:12;;;;;;;1.9;1.2;;;;;;;7.92;83.12891;932.9604;;;;
2023/12/23 09:52:39;;;;;;;1.3;0.9;;;;;;;7.91;82.68457;932.9556;;;;
2023/12/23 09:55:05;;;;;;;0.8;0.8;;;;;;;7.88;83.23535;932.8744;;;;
2023/12/23 09:57:37;;;;;;;0.5;0.5;;;;;;;7.96;83.49902;932.6714;;;;
2023/12/23 10:00:05;;;;;;;0.3;0.3;;;;;;;7.99;83.45898;932.7614;;;;
2023/12/23 10:02:29;;;;;;;0.4;0.4;;;;;;;8.05;82.46094;932.6227;;;;
2023/12/23 10:04:55;;;;;;;0.5;0.5;;;;;;;8.1;81.8584;932.4163;;;;
2023/12/23 10:07:25;;;;;;;0.9;0.6;;;;;;;8.14;82.4668;932.5759;;;;
2023/12/23 10:09:55;;;;;;;0.7;0.7;;;;;;;8.03;82.95703;932.4433;;;;
2023/12/23 10:12:20;;;;;;;1.4;1.3;;;;;;;8.11;81.22363;932.5281;;;;
2023/12/23 10:14:47;;;;;;;3.1;2.3;;;;;;;8.18;81.37402;932.5858;;;;
2023/12/23 10:17:12;;;;;;;1.5;1.3;;;;;;;8.25;81.26074;932.4749;;;;
2023/12/23 10:19:45;;;;;;;0.7;0.7;;;;;;;8.36;80.73633;932.3588;;;;
2023/12/23 10:22:16;;;;;;;2.1;1.4;;;;;;;8.31;80.02344;932.423;;;;
2023/12/23 10:24:39;;;;;;;2.2;0.9;;;;;;;8.37;79.43164;932.3326;;;;
2023/12/23 10:27:08;;;;;;;3.3;1.5;;;;;;;8.35;79.66699;932.4697;;;;
2023/12/23 10:29:33;;;;;;;0.5;0.5;;;;;;;8.31;80.0459;932.5452;;;;
2023/12/23 10:32:01;;;;;;;0.2;0.2;;;;;;;8.46;78.66602;932.413;;;;
2023/12/23 10:34:27;;;;;;;0.3;0.3;;;;;;;8.51;78.70801;932.3538;;;;
2023/12/23 10:36:55;;;;;;;0.6;0.4;;;;;;;8.59;77.6543;932.3894;;;;
2023/12/23 10:39:19;;;;;;;0.5;0.3;;;;;;;8.6;77.99707;932.3632;;;;
2023/12/23 10:41:44;;;;;;;0.6;0.3;;;;;;;8.62;78.03418;932.4366;;;;
2023/12/23 10:44:13;;;;;;;0.2;0.2;;;;;;;8.59;78.23438;932.1814;;;;
2023/12/23 10:46:45;;;;;;;0.3;0.3;;;;;;;8.66;77.5293;932.0988;;;;
2023/12/23 10:49:10;;;;;;;0.3;0.3;;;;;;;8.68;77.09082;932.2029;;;;
2023/12/23 10:51:35;;;;;;;0.8;0.4;;;;;;;8.76;77.37695;932.324;;;;
2023/12/23 10:54:03;;;;;;;0.3;0.3;;;;;;;8.8;76.72559;932.2299;;;;
2023/12/23 10:56:29;;;;;;;0.2;0.2;;;;;;;8.83;76.50293;932.2709;;;;
2023/12/23 10:58:56;;;;;;;1.1;0.9;;;;;;;8.8;76.21387;932.1013;;;;
2023/12/23 11:01:21;;;;;;;0.3;0.3;;;;;;;8.85;75.43848;931.8408;;;;
2023/12/23 11:03:54;;;;;;;0.4;0.4;;;;;;;8.99;74.64355;932.0471;;;;
2023/12/23 11:06:24;;;;;;;0.6;0.6;;;;;;;8.94;75.1582;931.83;;;;
2023/12/23 11:08:55;;;;;;;0.5;0.5;;;;;;;9.02;74.73926;931.7981;;;;
2023/12/23 11:11:22;;;;;;;0.4;0.4;;;;;;;9.03;74.81055;931.8824;;;;
2023/12/23 11:13:47;;;;;;;0.4;0.4;;;;;;;9.11;74.16309;931.8017;;;;
2023/12/23 11:16:12;;;;;;;0.3;0.3;;;;;;;9.15;74.33105;931.7813;;;;
2023/12/23 11:18:37;;;;;;;0.4;0.4;;;;;;;9.21;73.82715;931.688;;;;
2023/12/23 11:21:02;;;;;;;0.4;0.4;;;;;;;9.24;73.68555;931.863;;;;
2023/12/23 11:23:28;;;;;;;0.6;0.6;;;;;;;9.25;73.7793;931.7684;;;;
2023/12/23 11:25:56;;;;;;;0.2;0.2;;;;;;;9.27;72.51758;931.7065;;;;
2023/12/23 11:28:21;;;;;;;0.2;0.2;;;;;;;9.31;73.44727;931.6153;;;;
2023/12/23 11:30:51;;;;;;;1.5;0.5;;;;;;;9.24;70.74707;931.5467;;;;
2023/12/23 11:33:16;;;;;;;0.3;0.3;;;;;;;9.29;72.20117;931.5747;;;;
2023/12/23 11:35:44;;;;;;;0.1;0.1;;;;;;;9.37;70.62207;931.4614;;;;
2023/12/23 11:38:10;;;;;;;0.2;0.2;;;;;;;9.3;70.71191;931.7067;;;;
2023/12/23 11:40:39;;;;;;;0.3;0.3;;;;;;;9.42;70.49121;931.3585;;;;
2023/12/23 11:43:06;;;;;;;0.3;0.3;;;;;;;9.52;70.60059;931.4358;;;;
2023/12/23 11:45:34;;;;;;;0.7;0.7;;;;;;;9.55;69.85352;931.4549;;;;
2023/12/23 11:47:59;;;;;;;8.7;6.1;;;;;;;9.58;68.65137;931.3293;;;;
2023/12/23 11:50:28;;;;;;;24.1;13.4;;;;;;;9.7;69.01074;931.3427;;;;
2023/12/23 11:52:53;;;;;;;1.3;1.2;;;;;;;9.53;69.06543;931.1847;;;;
2023/12/23 11:55:24;;;;;;;12.9;7.8;;;;;;;9.63;68.69238;931.2455;;;;
2023/12/23 11:57:56;;;;;;;18.5;11.3;;;;;;;9.73;67.86523;931.1583;;;;
2023/12/23 12:00:26;;;;;;;8.4;5.7;;;;;;;9.77;67.87109;931.4079;;;;
2023/12/23 12:02:56;;;;;;;3.5;2.4;;;;;;;9.72;66.31348;931.3872;;;;
2023/12/23 12:05:22;;;;;;;4.2;3;;;;;;;9.79;66.87207;931.33;;;;
2023/12/23 12:07:50;;;;;;;20.4;11.4;;;;;;;9.79;67.17969;931.4667;;;;
2023/12/23 12:10:15;;;;;;;5.9;3.7;;;;;;;9.75;65.9873;931.38;;;;
2023/12/23 12:12:45;;;;;;;4.2;3;;;;;;;9.78;64.78516;931.4063;;;;
2023/12/23 12:15:15;;;;;;;18.1;10.6;;;;;;;9.89;66.06641;931.3733;;;;
2023/12/23 12:17:40;;;;;;;4.2;2.9;;;;;;;9.89;65.56445;931.2421;;;;
2023/12/23 12:20:12;;;;;;;4.9;3.3;;;;;;;9.88;63.80762;931.3781;;;;
2023/12/23 12:22:40;;;;;;;5.9;4;;;;;;;9.99;63.16211;931.2628;;;;
2023/12/23 12:25:05;;;;;;;3.9;2.8;;;;;;;10.08;63.66504;931.3482;;;;
2023/12/23 12:27:30;;;;;;;3.8;2.8;;;;;;;10.06;64.53027;931.3339;;;;
2023/12/23 12:30:00;;;;;;;0.8;0.8;;;;;;;10.1;63.45215;931.3697;;;;
2023/12/23 12:32:33;;;;;;;1;0.9;;;;;;;10.09;63.59863;931.4508;;;;
2023/12/23 12:35:01;;;;;;;0.5;0.5;;;;;;;10.08;63.26563;931.4587;;;;
2023/12/23 12:37:26;;;;;;;0.5;0.4;;;;;;;10.06;62.89844;931.3259;;;;
2023/12/23 12:39:51;;;;;;;0.6;0.6;;;;;;;10.18;62.51563;931.4246;;;;
2023/12/23 12:42:20;;;;;;;0.5;0.5;;;;;;;10.29;61.66602;931.4991;;;;
2023/12/23 12:44:45;;;;;;;1.1;0.5;;;;;;;10.21;61.98438;931.3055;;;;
2023/12/23 12:47:12;;;;;;;0.4;0.4;;;;;;;10.33;61.43066;931.3757;;;;
2023/12/23 12:49:38;;;;;;;0.3;0.3;;;;;;;10.45;60.46777;931.5048;;;;
2023/12/23 12:52:05;;;;;;;0.3;0.3;;;;;;;10.55;60.28711;931.3;;;;
2023/12/23 12:54:30;;;;;;;0.6;0.3;;;;;;;10.46;58.8252;931.5318;;;;
2023/12/23 12:56:57;;;;;;;0.3;0.3;;;;;;;10.44;59.64453;931.3775;;;;
2023/12/23 12:59:22;;;;;;;0.3;0.3;;;;;;;10.46;59.36133;931.5334;;;;
2023/12/23 13:01:51;;;;;;;0.3;0.3;;;;;;;10.53;59.62207;931.7045;;;;
2023/12/23 13:04:16;;;;;;;0.2;0.2;;;;;;;10.54;59.15527;931.5762;;;;
2023/12/23 13:06:45;;;;;;;0.2;0.2;;;;;;;10.61;58.16016;931.5295;;;;
2023/12/23 13:09:10;;;;;;;0.2;0.2;;;;;;;10.52;58.35254;931.4481;;;;
2023/12/23 13:11:37;;;;;;;0.3;0.3;;;;;;;10.56;58.64453;931.6678;;;;
2023/12/23 13:14:02;;;;;;;0.3;0.3;;;;;;;10.5;57.00391;931.5485;;;;
2023/12/23 13:16:27;;;;;;;0.2;0.2;;;;;;;10.43;56.30957;931.6569;;;;
2023/12/23 13:18:54;;;;;;;0.3;0.3;;;;;;;10.39;56.7373;931.6526;;;;
2023/12/23 13:21:19;;;;;;;1;0.3;;;;;;;10.55;56.41504;931.6464;;;;
2023/12/23 13:23:44;;;;;;;0.3;0.3;;;;;;;10.58;56.92383;931.7601;;;;
2023/12/23 13:26:12;;;;;;;0.5;0.3;;;;;;;10.57;56.55566;931.78;;;;
2023/12/23 13:28:37;;;;;;;0.5;0.3;;;;;;;10.63;55.41016;931.7294;;;;
2023/12/23 13:31:06;;;;;;;0.2;0.2;;;;;;;10.65;55.8125;931.6114;;;;
2023/12/23 13:33:32;;;;;;;0.2;0.2;;;;;;;10.65;55.28809;931.5295;;;;
2023/12/23 13:36:07;;;;;;;0.3;0.2;;;;;;;10.71;53.05664;931.5054;;;;
2023/12/23 13:38:32;;;;;;;0.2;0.2;;;;;;;10.62;53.37598;931.5701;;;;
2023/12/23 13:40:58;;;;;;;0.1;0.1;;;;;;;10.64;53.43457;931.5144;;;;
2023/12/23 13:43:31;;;;;;;0.3;0.2;;;;;;;10.72;54.07324;931.4529;;;;
2023/12/23 13:46:08;;;;;;;0.2;0.2;;;;;;;10.66;53.16406;931.3989;;;;
2023/12/23 13:48:35;;;;;;;0.3;0.2;;;;;;;10.66;52.67285;931.4514;;;;
2023/12/23 13:51:00;;;;;;;0.2;0.2;;;;;;;10.81;50.68066;931.3635;;;;
2023/12/23 13:53:33;;;;;;;0.2;0.2;;;;;;;10.94;51.17578;931.3243;;;;
2023/12/23 13:55:59;;;;;;;0.5;0.3;;;;;;;10.87;50.74414;931.354;;;;
2023/12/23 13:58:26;;;;;;;0.5;0.4;;;;;;;10.86;50.57324;931.4042;;;;
2023/12/23 14:00:51;;;;;;;0.3;0.3;;;;;;;10.92;49.84766;931.4573;;;;
2023/12/23 14:03:23;;;;;;;0.5;0.5;;;;;;;10.79;50.35938;931.5267;;;;
2023/12/23 14:05:49;;;;;;;0.6;0.5;;;;;;;10.88;51.08789;931.5452;;;;
2023/12/23 14:08:19;;;;;;;0.2;0.2;;;;;;;10.8;50.45117;931.5809;;;;
2023/12/23 14:10:45;;;;;;;1.2;0.2;;;;;;;10.84;49.26758;931.7084;;;;
2023/12/23 14:13:09;;;;;;;0.3;0.3;;;;;;;10.92;49.35645;931.7361;;;;
2023/12/23 14:15:39;;;;;;;4.3;3.3;;;;;;;10.88;49.72852;931.5786;;;;
2023/12/23 14:18:03;;;;;;;4.1;3.1;;;;;;;10.98;49.08887;931.6038;;;;
2023/12/23 14:20:31;;;;;;;2.8;2.3;;;;;;;10.88;49.90137;931.5499;;;;
2023/12/23 14:23:03;;;;;;;6.8;6;;;;;;;10.86;48.78906;931.7188;;;;
2023/12/23 14:25:27;;;;;;;3.3;3;;;;;;;10.86;49.30469;931.8773;;;;
2023/12/23 14:27:54;;;;;;;0.9;0.9;;;;;;;10.79;48.10742;931.7808;;;;
2023/12/23 14:30:19;;;;;;;1.3;1.1;;;;;;;10.84;48.30762;931.902;;;;
2023/12/23 14:32:48;;;;;;;0.5;0.5;;;;;;;10.74;48.46777;931.8486;;;;